Time;durP1;ratioP1;P1;durP2;ratioP2;P2;SDS_P1;SDS_P2;PMS_P1;PMS_P2;Temp;Humidity;BMP_temperature;BMP_pressure;BME280_temperature;BME280_humidity;BME280_pressure;Samples;Min_cycle;Max_cycle;Signal;HPM_P1;HPM_P2
2022/01/13 00:00:58;;;;;;;252.35;30.80;;;;;;;;;;5034099;27;96777;-76
2022/01/13 00:03:25;;;;;;;212.68;25.00;;;;;;;;;;5052261;27;96520;-76
2022/01/13 00:05:51;;;;;;;269.10;28.50;;;;;;;;;;5051521;27;95927;-76
2022/01/13 00:08:18;;;;;;;210.20;25.35;;;;;;;;;;5051980;27;96864;-77
2022/01/13 00:10:44;;;;;;;241.30;24.65;;;;;;;;;;5052027;27;97389;-77
2022/01/13 00:13:20;;;;;;;223.63;24.98;;;;;;;;;;5054989;27;95325;-76
2022/01/13 00:16:01;;;;;;;297.63;27.85;;;;;;;;;;5052340;27;97390;-76
2022/01/13 00:18:40;;;;;;;256.40;25.30;;;;;;;;;;5052411;27;95865;-76
2022/01/13 00:21:30;;;;;;;271.15;26.30;;;;;;;;;;5051058;27;96877;-76
2022/01/13 00:24:00;;;;;;;318.60;29.83;;;;;;;;;;5052414;27;97740;-76
2022/01/13 00:26:28;;;;;;;225.55;26.67;;;;;;;;;;5051168;27;95125;-75
2022/01/13 00:28:56;;;;;;;251.25;27.08;;;;;;;;;;5031688;27;95717;-76
2022/01/13 00:31:27;;;;;;;217.27;23.88;;;;;;;;;;5053514;27;97238;-76
2022/01/13 00:33:57;;;;;;;231.30;25.08;;;;;;;;;;5055415;27;95138;-77
2022/01/13 00:36:27;;;;;;;253.95;25.70;;;;;;;;;;5058502;27;97667;-76
2022/01/13 00:38:54;;;;;;;190.32;23.77;;;;;;;;;;5055698;27;95742;-76
2022/01/13 00:41:21;;;;;;;210.63;25.58;;;;;;;;;;5054931;27;97121;-76
2022/01/13 00:43:47;;;;;;;238.98;26.70;;;;;;;;;;5055512;27;97308;-76
2022/01/13 00:46:20;;;;;;;267.42;27.27;;;;;;;;;;5055381;27;95871;-76
2022/01/13 00:48:48;;;;;;;203.77;24.02;;;;;;;;;;5055076;27;97275;-75
2022/01/13 00:51:14;;;;;;;192.43;22.83;;;;;;;;;;5054522;27;97309;-76
2022/01/13 00:53:41;;;;;;;221.50;22.20;;;;;;;;;;5055734;27;95146;-76
2022/01/13 00:56:07;;;;;;;191.75;21.15;;;;;;;;;;5058161;27;95703;-76
2022/01/13 00:58:35;;;;;;;196.25;22.63;;;;;;;;;;5055416;27;95429;-76
2022/01/13 01:01:03;;;;;;;201.60;23.55;;;;;;;;;;5054023;27;97152;-75
2022/01/13 01:03:29;;;;;;;270.92;24.05;;;;;;;;;;5054717;27;96829;-76
2022/01/13 01:05:56;;;;;;;247.63;22.88;;;;;;;;;;5055277;27;95334;-74
2022/01/13 01:08:23;;;;;;;248.23;23.67;;;;;;;;;;5054145;27;98319;-76
2022/01/13 01:10:52;;;;;;;247.27;22.23;;;;;;;;;;5054505;27;97282;-73
2022/01/13 01:13:22;;;;;;;166.57;21.40;;;;;;;;;;5054475;27;97180;-73
2022/01/13 01:15:52;;;;;;;205.98;22.00;;;;;;;;;;5054930;27;96821;-73
2022/01/13 01:21:17;;;;;;;148.73;19.33;;;;;;;;;;5054951;27;97166;-73
2022/01/13 01:24:10;;;;;;;184.05;20.38;;;;;;;;;;5054328;27;97298;-73
2022/01/13 01:26:40;;;;;;;227.07;22.92;;;;;;;;;;5054515;27;95313;-73
2022/01/13 01:29:20;;;;;;;204.27;20.88;;;;;;;;;;5055116;27;97219;-73
2022/01/13 01:31:50;;;;;;;202.38;22.10;;;;;;;;;;5053473;27;97299;-73
2022/01/13 01:37:00;;;;;;;202.00;21.65;;;;;;;;;;5053995;27;97458;-73
2022/01/13 01:39:27;;;;;;;213.95;20.98;;;;;;;;;;5054456;27;97767;-73
2022/01/13 01:41:54;;;;;;;212.57;21.67;;;;;;;;;;5057095;27;95276;-73
2022/01/13 01:44:28;;;;;;;228.27;22.95;;;;;;;;;;5053903;27;97322;-73
2022/01/13 01:46:55;;;;;;;252.07;21.85;;;;;;;;;;5054744;27;95800;-73
2022/01/13 01:49:24;;;;;;;205.80;21.98;;;;;;;;;;5054286;27;96007;-75
2022/01/13 01:51:52;;;;;;;218.40;23.30;;;;;;;;;;5035498;27;97599;-76
2022/01/13 01:54:19;;;;;;;238.30;21.40;;;;;;;;;;5054503;27;95181;-76
2022/01/13 01:56:45;;;;;;;206.80;20.02;;;;;;;;;;5054562;27;96934;-76
2022/01/13 01:59:15;;;;;;;204.52;22.98;;;;;;;;;;5053750;27;97414;-77
2022/01/13 02:01:42;;;;;;;236.20;23.90;;;;;;;;;;5035783;27;95220;-75
2022/01/13 02:04:10;;;;;;;195.90;22.38;;;;;;;;;;5056872;27;97590;-75
2022/01/13 02:06:37;;;;;;;216.40;22.17;;;;;;;;;;5053841;27;95437;-76
2022/01/13 02:09:05;;;;;;;227.73;22.58;;;;;;;;;;5054167;27;96942;-76
2022/01/13 02:11:36;;;;;;;194.80;22.70;;;;;;;;;;5052730;27;97790;-75
2022/01/13 02:14:10;;;;;;;220.88;25.20;;;;;;;;;;5054522;27;95158;-76
2022/01/13 02:16:44;;;;;;;190.38;23.33;;;;;;;;;;5054165;27;97029;-75
2022/01/13 02:19:11;;;;;;;242.07;24.25;;;;;;;;;;5052536;27;96695;-76
2022/01/13 02:21:38;;;;;;;249.23;26.33;;;;;;;;;;5053960;27;95329;-75
2022/01/13 02:24:04;;;;;;;214.23;23.90;;;;;;;;;;5036289;27;96837;-76
2022/01/13 02:26:30;;;;;;;384.55;28.90;;;;;;;;;;5055926;27;97274;-76
2022/01/13 02:28:57;;;;;;;374.98;29.10;;;;;;;;;;5053712;27;97079;-76
2022/01/13 02:31:25;;;;;;;282.60;26.48;;;;;;;;;;5053306;27;97770;-76
2022/01/13 02:33:52;;;;;;;295.30;25.55;;;;;;;;;;5053581;27;95209;-75
2022/01/13 02:36:19;;;;;;;310.00;26.70;;;;;;;;;;5053415;27;97257;-76
2022/01/13 02:38:49;;;;;;;257.20;25.23;;;;;;;;;;5053904;27;96230;-75
2022/01/13 02:41:15;;;;;;;210.63;24.30;;;;;;;;;;5053014;27;95475;-76
2022/01/13 02:43:47;;;;;;;234.18;23.13;;;;;;;;;;5054206;27;96782;-75
2022/01/13 02:46:55;;;;;;;266.42;25.88;;;;;;;;;;5034836;27;97806;-74
2022/01/13 02:49:17;;;;;;;285.30;23.25;;;;;;;;;;5056353;27;95069;-76
2022/01/13 02:51:47;;;;;;;176.70;21.25;;;;;;;;;;5034718;27;97489;-75
2022/01/13 02:54:13;;;;;;;244.43;22.63;;;;;;;;;;5051650;27;95212;-75
2022/01/13 02:56:40;;;;;;;189.45;20.55;;;;;;;;;;5052946;27;96946;-75
2022/01/13 02:59:06;;;;;;;232.68;21.77;;;;;;;;;;5053625;27;96334;-75
2022/01/13 03:01:33;;;;;;;218.48;21.30;;;;;;;;;;5052713;27;95276;-75
2022/01/13 03:04:04;;;;;;;233.90;24.05;;;;;;;;;;5053703;27;97350;-75
2022/01/13 03:06:34;;;;;;;280.83;22.85;;;;;;;;;;5052286;27;97310;-74
2022/01/13 03:09:02;;;;;;;232.93;22.40;;;;;;;;;;5037325;27;95338;-74
2022/01/13 03:11:37;;;;;;;227.27;21.60;;;;;;;;;;5034478;27;97365;-74
2022/01/13 03:14:10;;;;;;;199.20;20.65;;;;;;;;;;5053363;27;95193;-75
2022/01/13 03:16:37;;;;;;;268.25;22.90;;;;;;;;;;5052264;27;97262;-74
2022/01/13 03:19:03;;;;;;;250.70;22.02;;;;;;;;;;5053061;27;97670;-75
2022/01/13 03:21:30;;;;;;;182.25;19.85;;;;;;;;;;5052385;27;95327;-74
2022/01/13 03:23:56;;;;;;;215.55;21.20;;;;;;;;;;5052789;27;96872;-75
2022/01/13 03:26:23;;;;;;;329.73;26.35;;;;;;;;;;5052417;27;97344;-75
2022/01/13 03:29:14;;;;;;;248.63;24.00;;;;;;;;;;5052624;27;95480;-75
2022/01/13 03:31:42;;;;;;;288.02;24.65;;;;;;;;;;5056061;27;96780;-72
2022/01/13 03:34:09;;;;;;;335.33;22.83;;;;;;;;;;5053012;27;95085;-74
2022/01/13 03:36:35;;;;;;;264.90;21.92;;;;;;;;;;5052279;27;97256;-73
2022/01/13 03:39:05;;;;;;;259.98;24.42;;;;;;;;;;5052721;27;97306;-73
2022/01/13 03:41:32;;;;;;;221.90;23.00;;;;;;;;;;5034250;27;95370;-73
2022/01/13 03:44:05;;;;;;;331.38;26.48;;;;;;;;;;5052481;27;97278;-73
2022/01/13 03:46:33;;;;;;;368.30;27.20;;;;;;;;;;5051929;27;98019;-73
2022/01/13 03:48:59;;;;;;;306.00;25.75;;;;;;;;;;5052492;27;95330;-73
2022/01/13 03:51:46;;;;;;;405.00;30.40;;;;;;;;;;5051801;27;96778;-73
2022/01/13 03:54:31;;;;;;;313.35;25.17;;;;;;;;;;5054967;27;97671;-73
2022/01/13 03:57:16;;;;;;;293.00;25.38;;;;;;;;;;5051956;27;96904;-73
2022/01/13 04:00:00;;;;;;;384.13;30.38;;;;;;;;;;5052509;27;97551;-73
2022/01/13 04:02:27;;;;;;;272.45;24.80;;;;;;;;;;5052157;27;94895;-73
2022/01/13 04:04:53;;;;;;;321.17;26.23;;;;;;;;;;5051940;27;96798;-73
2022/01/13 04:07:21;;;;;;;377.95;28.85;;;;;;;;;;5051284;27;97358;-73
2022/01/13 04:09:47;;;;;;;345.05;27.83;;;;;;;;;;5052495;27;95205;-73
2022/01/13 04:12:15;;;;;;;288.23;26.42;;;;;;;;;;5051070;27;96636;-73
2022/01/13 04:14:59;;;;;;;338.15;28.23;;;;;;;;;;5052281;27;97431;-75
2022/01/13 04:17:26;;;;;;;295.83;25.88;;;;;;;;;;5055350;27;95531;-75
2022/01/13 04:19:52;;;;;;;370.73;27.92;;;;;;;;;;5051586;27;97355;-75
2022/01/13 04:22:19;;;;;;;368.33;27.50;;;;;;;;;;5051850;27;95374;-75
2022/01/13 04:24:46;;;;;;;348.33;26.52;;;;;;;;;;5052309;27;96926;-75
2022/01/13 04:27:21;;;;;;;361.98;28.20;;;;;;;;;;5051067;27;97313;-75
2022/01/13 04:29:49;;;;;;;354.13;28.90;;;;;;;;;;5052616;27;95358;-75
2022/01/13 04:32:16;;;;;;;310.02;25.33;;;;;;;;;;5051114;27;97041;-75
2022/01/13 04:34:42;;;;;;;384.52;28.65;;;;;;;;;;5052149;27;97262;-75
2022/01/13 04:37:08;;;;;;;236.80;24.27;;;;;;;;;;5051746;27;95327;-74
2022/01/13 04:39:35;;;;;;;355.58;30.38;;;;;;;;;;5054741;27;95789;-76
2022/01/13 04:42:02;;;;;;;403.45;33.00;;;;;;;;;;5051824;27;95347;-76
2022/01/13 04:44:28;;;;;;;318.23;27.42;;;;;;;;;;5052058;27;96794;-76
2022/01/13 04:46:55;;;;;;;339.92;26.88;;;;;;;;;;5032917;27;98105;-76
2022/01/13 04:49:22;;;;;;;274.88;24.00;;;;;;;;;;5051440;27;95344;-75
2022/01/13 04:51:49;;;;;;;283.33;25.67;;;;;;;;;;5052065;27;97170;-75
2022/01/13 04:54:16;;;;;;;310.23;26.60;;;;;;;;;;5051118;27;97468;-75
2022/01/13 04:56:53;;;;;;;314.83;27.45;;;;;;;;;;5051473;27;95338;-76
2022/01/13 04:59:19;;;;;;;312.27;27.52;;;;;;;;;;5033568;27;96999;-76
2022/01/13 05:01:45;;;;;;;292.10;26.65;;;;;;;;;;5054373;27;95508;-75
2022/01/13 05:04:12;;;;;;;321.42;29.58;;;;;;;;;;5033612;27;96805;-76
2022/01/13 05:06:38;;;;;;;323.35;28.30;;;;;;;;;;5051018;27;97222;-75
2022/01/13 05:09:05;;;;;;;232.65;24.75;;;;;;;;;;5050999;27;95328;-75
2022/01/13 05:11:31;;;;;;;290.48;26.40;;;;;;;;;;5051423;27;96851;-75
2022/01/13 05:13:57;;;;;;;212.57;24.05;;;;;;;;;;5051587;27;97797;-76
2022/01/13 05:16:30;;;;;;;212.57;25.02;;;;;;;;;;5051089;27;95358;-76
2022/01/13 05:19:11;;;;;;;260.20;26.30;;;;;;;;;;5054974;27;95629;-75
2022/01/13 05:21:55;;;;;;;290.95;27.27;;;;;;;;;;5042460;27;97388;-75
2022/01/13 05:24:22;;;;;;;364.15;29.10;;;;;;;;;;5054965;27;96824;-75
2022/01/13 05:26:48;;;;;;;272.17;26.52;;;;;;;;;;5053880;27;97810;-75
2022/01/13 05:29:19;;;;;;;391.02;29.00;;;;;;;;;;5054313;27;95341;-75
2022/01/13 05:31:45;;;;;;;393.17;31.40;;;;;;;;;;5054712;27;96793;-75
2022/01/13 05:34:11;;;;;;;257.10;29.17;;;;;;;;;;5054416;27;97557;-75
2022/01/13 05:36:58;;;;;;;282.83;28.80;;;;;;;;;;5054293;27;95460;-75
2022/01/13 05:39:24;;;;;;;263.63;28.60;;;;;;;;;;5054918;27;96041;-75
2022/01/13 05:41:50;;;;;;;317.02;29.50;;;;;;;;;;5054174;27;97681;-75
2022/01/13 05:44:17;;;;;;;306.52;29.15;;;;;;;;;;5057200;27;95163;-74
2022/01/13 05:46:43;;;;;;;335.58;28.95;;;;;;;;;;5036130;27;97814;-75
2022/01/13 05:49:10;;;;;;;298.30;28.65;;;;;;;;;;5036345;27;95413;-75
2022/01/13 05:51:36;;;;;;;291.05;28.73;;;;;;;;;;5050076;27;96839;-73
2022/01/13 05:54:02;;;;;;;343.00;33.40;;;;;;;;;;5054099;27;97297;-73
2022/01/13 05:56:29;;;;;;;381.75;33.00;;;;;;;;;;5052820;27;95391;-73
2022/01/13 05:58:55;;;;;;;396.25;33.05;;;;;;;;;;5042686;27;96893;-73
2022/01/13 06:01:21;;;;;;;309.67;28.45;;;;;;;;;;5033988;27;98073;-73
2022/01/13 06:03:48;;;;;;;467.35;33.92;;;;;;;;;;5017472;28;96196;-73
2022/01/13 06:06:15;;;;;;;248.50;27.05;;;;;;;;;;5049446;27;97139;-73
2022/01/13 06:08:41;;;;;;;321.60;30.02;;;;;;;;;;5051660;27;95644;-73
2022/01/13 06:11:07;;;;;;;263.77;27.23;;;;;;;;;;5051971;27;97066;-73
2022/01/13 06:13:34;;;;;;;305.23;29.75;;;;;;;;;;5053822;27;97857;-73
2022/01/13 06:16:00;;;;;;;294.83;28.60;;;;;;;;;;5052756;27;95405;-74
2022/01/13 06:18:28;;;;;;;291.83;26.30;;;;;;;;;;5034637;27;97317;-74
2022/01/13 06:20:55;;;;;;;314.45;27.77;;;;;;;;;;5053951;27;97311;-74
2022/01/13 06:23:21;;;;;;;232.98;26.10;;;;;;;;;;5047509;27;95217;-74
2022/01/13 06:25:47;;;;;;;280.15;26.77;;;;;;;;;;5039819;27;96755;-74
2022/01/13 06:28:14;;;;;;;308.05;27.27;;;;;;;;;;5046466;27;97274;-74
2022/01/13 06:30:40;;;;;;;283.75;27.35;;;;;;;;;;5053471;27;97137;-73
2022/01/13 06:33:07;;;;;;;286.88;26.70;;;;;;;;;;5053069;27;97326;-73
2022/01/13 06:35:33;;;;;;;272.20;25.63;;;;;;;;;;5035474;27;95350;-73
2022/01/13 06:38:00;;;;;;;201.85;24.65;;;;;;;;;;5053912;27;96868;-73
2022/01/13 06:40:26;;;;;;;251.23;24.98;;;;;;;;;;5052551;27;97188;-75
2022/01/13 06:42:53;;;;;;;324.35;27.45;;;;;;;;;;5053713;27;95767;-75
2022/01/13 06:45:19;;;;;;;217.05;22.23;;;;;;;;;;5050530;27;96905;-75
2022/01/13 06:47:46;;;;;;;214.32;23.45;;;;;;;;;;5046153;27;97744;-75
2022/01/13 06:50:12;;;;;;;204.18;23.42;;;;;;;;;;5053734;27;95357;-76
2022/01/13 06:52:39;;;;;;;237.35;24.15;;;;;;;;;;5050120;27;97732;-82
2022/01/13 06:55:06;;;;;;;178.77;23.02;;;;;;;;;;5052452;27;95286;-75
2022/01/13 06:57:33;;;;;;;239.02;25.05;;;;;;;;;;5051745;27;96887;-73
2022/01/13 07:00:00;;;;;;;280.48;25.05;;;;;;;;;;5046153;27;97703;-76
2022/01/13 07:02:30;;;;;;;216.40;22.90;;;;;;;;;;5043887;27;96702;-73
2022/01/13 07:04:57;;;;;;;165.18;22.10;;;;;;;;;;5049842;27;96820;-76
2022/01/13 07:07:24;;;;;;;271.95;26.02;;;;;;;;;;5031014;27;97406;-76
2022/01/13 07:09:50;;;;;;;181.38;21.60;;;;;;;;;;5036747;27;95204;-75
2022/01/13 07:12:16;;;;;;;243.13;25.02;;;;;;;;;;5048958;27;97447;-73
2022/01/13 07:14:43;;;;;;;269.48;24.30;;;;;;;;;;5050314;27;95415;-73
2022/01/13 07:17:09;;;;;;;218.35;24.42;;;;;;;;;;5049247;27;96893;-73
2022/01/13 07:19:35;;;;;;;264.00;24.23;;;;;;;;;;5041856;27;97366;-75
2022/01/13 07:22:02;;;;;;;135.38;22.40;;;;;;;;;;5050614;27;95728;-74
2022/01/13 07:24:28;;;;;;;246.52;25.10;;;;;;;;;;5050739;27;96884;-73
2022/01/13 07:26:54;;;;;;;229.90;24.20;;;;;;;;;;5050847;27;97413;-74
2022/01/13 07:29:21;;;;;;;152.75;21.95;;;;;;;;;;5050044;27;95313;-73
2022/01/13 07:31:48;;;;;;;203.55;22.70;;;;;;;;;;5035526;27;97150;-73
2022/01/13 07:34:14;;;;;;;197.30;23.23;;;;;;;;;;5049800;27;96302;-73
2022/01/13 07:36:41;;;;;;;248.50;24.02;;;;;;;;;;5050300;27;96959;-74
2022/01/13 07:39:08;;;;;;;150.73;21.30;;;;;;;;;;5046382;27;97337;-73
2022/01/13 07:41:36;;;;;;;172.13;22.42;;;;;;;;;;5039450;27;95310;-73
2022/01/13 07:44:03;;;;;;;221.27;23.38;;;;;;;;;;5049408;27;96826;-74
2022/01/13 07:46:30;;;;;;;262.52;24.92;;;;;;;;;;5031964;27;98373;-73
2022/01/13 07:48:56;;;;;;;203.20;23.08;;;;;;;;;;5047766;27;95679;-74
2022/01/13 07:51:23;;;;;;;218.68;23.60;;;;;;;;;;5050687;27;96460;-75
2022/01/13 07:53:49;;;;;;;179.50;21.20;;;;;;;;;;5053792;27;97232;-75
2022/01/13 07:56:15;;;;;;;208.25;22.45;;;;;;;;;;5050146;27;96820;-74
2022/01/13 07:58:43;;;;;;;208.70;22.38;;;;;;;;;;5050357;27;97449;-74
2022/01/13 08:01:10;;;;;;;177.68;21.00;;;;;;;;;;5048675;27;95173;-72
2022/01/13 08:03:36;;;;;;;217.38;23.38;;;;;;;;;;5050121;27;95673;-71
2022/01/13 08:06:06;;;;;;;221.70;23.25;;;;;;;;;;5050986;27;96301;-73
2022/01/13 08:08:35;;;;;;;223.32;22.75;;;;;;;;;;5049901;27;95307;-74
2022/01/13 08:11:05;;;;;;;250.73;24.73;;;;;;;;;;5033270;27;96595;-74
2022/01/13 08:13:32;;;;;;;217.43;23.98;;;;;;;;;;5049332;27;97170;-74
2022/01/13 08:16:01;;;;;;;207.52;23.63;;;;;;;;;;5053072;27;95299;-72
2022/01/13 08:21:12;;;;;;;217.32;23.40;;;;;;;;;;5050767;27;95304;-72
2022/01/13 08:23:39;;;;;;;196.45;21.58;;;;;;;;;;5043829;27;96758;-72
2022/01/13 08:26:05;;;;;;;255.25;23.60;;;;;;;;;;5050153;27;97226;-72
2022/01/13 08:28:32;;;;;;;220.60;23.55;;;;;;;;;;5015277;28;95352;-72
2022/01/13 08:30:58;;;;;;;250.05;24.00;;;;;;;;;;5031390;28;96885;-73
2022/01/13 08:33:25;;;;;;;200.55;23.45;;;;;;;;;;5038743;27;97198;-72
2022/01/13 08:35:52;;;;;;;240.40;26.98;;;;;;;;;;5022413;27;96692;-72
2022/01/13 08:38:19;;;;;;;211.52;23.63;;;;;;;;;;5039240;27;97183;-75
2022/01/13 08:40:47;;;;;;;180.60;22.25;;;;;;;;;;5049749;27;96419;-74
2022/01/13 08:43:14;;;;;;;221.75;23.27;;;;;;;;;;5042759;27;96852;-73
2022/01/13 08:45:41;;;;;;;174.18;22.60;;;;;;;;;;5045437;27;97296;-75
2022/01/13 08:48:07;;;;;;;218.73;24.17;;;;;;;;;;5047477;27;95368;-73
2022/01/13 08:50:33;;;;;;;205.35;25.48;;;;;;;;;;5047003;27;96741;-73
2022/01/13 08:53:00;;;;;;;221.65;25.48;;;;;;;;;;5047668;27;97407;-75
2022/01/13 08:55:26;;;;;;;222.38;24.75;;;;;;;;;;5052077;27;97077;-75
2022/01/13 08:57:53;;;;;;;227.55;26.17;;;;;;;;;;5052699;27;96638;-74
2022/01/13 09:00:19;;;;;;;237.63;25.25;;;;;;;;;;5036754;27;97386;-73
2022/01/13 09:02:45;;;;;;;253.43;25.25;;;;;;;;;;5053576;27;95610;-73
2022/01/13 09:05:13;;;;;;;280.48;27.33;;;;;;;;;;5053083;27;97371;-72
2022/01/13 09:07:40;;;;;;;261.02;27.75;;;;;;;;;;5052280;27;95340;-72
2022/01/13 09:10:06;;;;;;;238.90;27.17;;;;;;;;;;5052970;27;96772;-73
2022/01/13 09:12:33;;;;;;;231.77;25.40;;;;;;;;;;5052359;27;97342;-72
2022/01/13 09:15:13;;;;;;;240.77;25.60;;;;;;;;;;5053429;27;95500;-73
2022/01/13 09:17:41;;;;;;;250.88;27.40;;;;;;;;;;5033770;27;96780;-72
2022/01/13 09:20:08;;;;;;;215.25;24.00;;;;;;;;;;5055317;27;97302;-72
2022/01/13 09:22:34;;;;;;;238.93;28.63;;;;;;;;;;5038765;27;96976;-72
2022/01/13 09:25:01;;;;;;;244.85;26.60;;;;;;;;;;5050926;27;97240;-73
2022/01/13 09:27:27;;;;;;;223.98;26.63;;;;;;;;;;5051806;27;95340;-72
2022/01/13 09:29:53;;;;;;;249.85;26.33;;;;;;;;;;5051341;27;97363;-73
2022/01/13 09:32:22;;;;;;;226.27;25.13;;;;;;;;;;5052256;27;97279;-74
2022/01/13 09:34:48;;;;;;;245.55;25.45;;;;;;;;;;5033547;27;95879;-73
2022/01/13 09:37:16;;;;;;;246.27;26.42;;;;;;;;;;5028926;27;96827;-74
2022/01/13 09:39:43;;;;;;;223.73;25.92;;;;;;;;;;5036419;27;97349;-73
2022/01/13 09:42:10;;;;;;;231.10;26.25;;;;;;;;;;5053171;27;95319;-75
2022/01/13 09:44:36;;;;;;;243.38;27.75;;;;;;;;;;5048607;27;97666;-73
2022/01/13 09:47:04;;;;;;;228.20;26.35;;;;;;;;;;5050739;27;96175;-72
2022/01/13 09:49:31;;;;;;;227.32;27.17;;;;;;;;;;5050919;27;96778;-73
2022/01/13 09:51:57;;;;;;;206.90;25.95;;;;;;;;;;5052176;27;97401;-73
2022/01/13 09:54:24;;;;;;;206.50;26.08;;;;;;;;;;5048274;27;95649;-73
2022/01/13 09:56:50;;;;;;;232.85;26.90;;;;;;;;;;5036325;27;96862;-74
2022/01/13 09:59:16;;;;;;;238.93;30.08;;;;;;;;;;5041757;27;97647;-74
2022/01/13 10:01:43;;;;;;;238.57;26.98;;;;;;;;;;5048156;27;95252;-74
2022/01/13 10:04:09;;;;;;;221.90;28.63;;;;;;;;;;5051962;27;97648;-73
2022/01/13 10:06:40;;;;;;;192.40;25.95;;;;;;;;;;5052547;27;95395;-71
2022/01/13 10:09:08;;;;;;;251.98;30.88;;;;;;;;;;5052218;27;97084;-71
2022/01/13 10:11:39;;;;;;;195.93;28.55;;;;;;;;;;5024207;28;97601;-75
2022/01/13 10:16:52;;;;;;;177.10;26.48;;;;;;;;;;5042910;27;96863;-75
2022/01/13 10:19:29;;;;;;;189.48;28.63;;;;;;;;;;5051248;27;97604;-73
2022/01/13 10:21:58;;;;;;;233.20;29.80;;;;;;;;;;5041353;27;95322;-73
2022/01/13 10:24:26;;;;;;;227.80;27.75;;;;;;;;;;5031729;27;97274;-74
2022/01/13 10:27:11;;;;;;;225.45;27.55;;;;;;;;;;5046352;27;97538;-73
2022/01/13 10:29:43;;;;;;;219.80;28.23;;;;;;;;;;5042668;27;97038;-75
2022/01/13 10:32:12;;;;;;;181.02;26.63;;;;;;;;;;5043614;27;97293;-73
2022/01/13 10:34:40;;;;;;;213.23;28.70;;;;;;;;;;5049891;27;95301;-74
2022/01/13 10:37:13;;;;;;;198.25;26.73;;;;;;;;;;5043592;27;96739;-74
2022/01/13 10:39:43;;;;;;;178.30;26.95;;;;;;;;;;5049438;27;97364;-73
2022/01/13 10:44:55;;;;;;;205.95;26.38;;;;;;;;;;5043364;27;96829;-74
2022/01/13 10:47:21;;;;;;;152.75;24.25;;;;;;;;;;5050478;27;97319;-74
2022/01/13 10:49:50;;;;;;;150.88;25.65;;;;;;;;;;5054120;27;95935;-74
2022/01/13 10:52:16;;;;;;;164.45;26.33;;;;;;;;;;5041452;27;97417;-74
2022/01/13 10:54:43;;;;;;;154.50;26.17;;;;;;;;;;5049524;27;96452;-73
2022/01/13 10:57:16;;;;;;;167.02;25.58;;;;;;;;;;5050803;27;95892;-74
2022/01/13 10:59:43;;;;;;;146.60;26.52;;;;;;;;;;5047287;27;96292;-74
2022/01/13 11:02:10;;;;;;;162.27;27.65;;;;;;;;;;5045848;27;95412;-74
2022/01/13 11:04:37;;;;;;;169.63;26.83;;;;;;;;;;5050069;27;96022;-72
2022/01/13 11:07:24;;;;;;;167.02;26.00;;;;;;;;;;5050208;27;97326;-74
2022/01/13 11:09:54;;;;;;;178.30;27.80;;;;;;;;;;5021538;28;95110;-73
2022/01/13 11:12:32;;;;;;;168.55;27.88;;;;;;;;;;5018647;28;97799;-74
2022/01/13 11:15:05;;;;;;;137.40;26.38;;;;;;;;;;5026480;27;95769;-73
2022/01/13 11:17:38;;;;;;;135.40;25.55;;;;;;;;;;5015700;28;96928;-73
2022/01/13 11:20:04;;;;;;;;;;;;;;;;;;5012295;28;97558;-73
2022/01/13 11:22:34;;;;;;;140.10;25.98;;;;;;;;;;5030180;28;118770;-72
2022/01/13 11:25:04;;;;;;;142.98;27.23;;;;;;;;;;5024307;27;95940;-73
2022/01/13 11:27:31;;;;;;;162.45;28.15;;;;;;;;;;5025337;28;98241;-75
2022/01/13 11:29:58;;;;;;;135.98;25.60;;;;;;;;;;5006198;28;95526;-75
2022/01/13 11:32:24;;;;;;;140.75;27.20;;;;;;;;;;5011984;28;96794;-74
2022/01/13 11:34:52;;;;;;;138.38;25.17;;;;;;;;;;5021662;28;96671;-74
2022/01/13 11:37:18;;;;;;;135.60;23.92;;;;;;;;;;5027576;28;96853;-74
2022/01/13 11:39:45;;;;;;;169.23;27.13;;;;;;;;;;5020934;28;97261;-73
2022/01/13 11:42:13;;;;;;;153.98;25.60;;;;;;;;;;5021628;28;95651;-73
2022/01/13 11:44:40;;;;;;;145.70;23.92;;;;;;;;;;5021925;28;96794;-73
2022/01/13 11:47:22;;;;;;;156.27;26.88;;;;;;;;;;5020711;28;96380;-74
2022/01/13 11:52:40;;;;;;;148.05;26.85;;;;;;;;;;5024964;28;96825;-74
2022/01/13 11:55:25;;;;;;;174.13;25.10;;;;;;;;;;5026690;28;97336;-74
2022/01/13 11:58:15;;;;;;;162.65;25.80;;;;;;;;;;5017181;28;96729;-74
2022/01/13 12:00:43;;;;;;;150.38;24.85;;;;;;;;;;5030316;28;97836;-75
2022/01/13 12:03:29;;;;;;;136.57;24.55;;;;;;;;;;5029989;27;95398;-73
2022/01/13 12:05:56;;;;;;;171.60;27.70;;;;;;;;;;5030942;27;96911;-74
2022/01/13 12:08:42;;;;;;;157.18;26.50;;;;;;;;;;5036969;27;97395;-73
2022/01/13 12:11:10;;;;;;;186.18;27.23;;;;;;;;;;5016541;28;96272;-73
2022/01/13 12:13:38;;;;;;;194.10;29.25;;;;;;;;;;5025865;28;95600;-74
2022/01/13 12:16:05;;;;;;;171.35;25.30;;;;;;;;;;5020094;27;97317;-73
2022/01/13 12:18:47;;;;;;;133.55;25.73;;;;;;;;;;5007282;28;95163;-74
2022/01/13 12:21:32;;;;;;;151.27;26.47;;;;;;;;;;5022696;28;97289;-73
2022/01/13 12:24:00;;;;;;;158.73;27.13;;;;;;;;;;5025505;27;96029;-75
2022/01/13 12:26:32;;;;;;;150.65;24.48;;;;;;;;;;5024392;27;96428;-75
2022/01/13 12:29:12;;;;;;;143.23;25.63;;;;;;;;;;5029158;28;97260;-73
2022/01/13 12:31:49;;;;;;;125.40;24.73;;;;;;;;;;5027388;28;95453;-74
2022/01/13 12:34:19;;;;;;;153.63;27.30;;;;;;;;;;5027718;28;97300;-75
2022/01/13 12:36:45;;;;;;;121.90;25.05;;;;;;;;;;5031908;27;97739;-74
2022/01/13 12:39:14;;;;;;;136.55;27.88;;;;;;;;;;5026530;28;95488;-73
2022/01/13 12:42:03;;;;;;;131.57;25.77;;;;;;;;;;5028767;28;97033;-73
2022/01/13 12:47:15;;;;;;;186.25;30.27;;;;;;;;;;5026901;28;97101;-75
2022/01/13 12:49:50;;;;;;;165.00;28.35;;;;;;;;;;5025173;28;97304;-75
2022/01/13 12:52:24;;;;;;;146.65;28.90;;;;;;;;;;5026769;28;95427;-75
2022/01/13 12:54:50;;;;;;;116.80;26.52;;;;;;;;;;5031818;27;96617;-74
2022/01/13 12:57:18;;;;;;;157.40;28.90;;;;;;;;;;5014904;28;97940;-75
2022/01/13 12:59:45;;;;;;;163.55;27.33;;;;;;;;;;5017206;27;95275;-76
2022/01/13 13:02:11;;;;;;;166.50;28.30;;;;;;;;;;5027992;28;96825;-75
2022/01/13 13:04:38;;;;;;;158.68;27.73;;;;;;;;;;5037142;28;97551;-76
2022/01/13 13:07:08;;;;;;;160.65;27.85;;;;;;;;;;5032722;28;99432;-75
2022/01/13 13:09:34;;;;;;;135.05;27.15;;;;;;;;;;5051672;27;97679;-74
2022/01/13 13:12:03;;;;;;;145.88;27.67;;;;;;;;;;5043379;27;95262;-74
2022/01/13 13:17:27;;;;;;;137.63;27.00;;;;;;;;;;5033136;28;97319;-74
2022/01/13 13:19:53;;;;;;;124.50;25.20;;;;;;;;;;5033327;28;95482;-75
2022/01/13 13:22:20;;;;;;;117.07;25.35;;;;;;;;;;5033446;28;97136;-74
2022/01/13 13:24:46;;;;;;;148.88;24.08;;;;;;;;;;5033611;28;97587;-74
2022/01/13 13:27:12;;;;;;;132.27;27.10;;;;;;;;;;5035276;28;95168;-74
2022/01/13 13:29:38;;;;;;;145.27;26.85;;;;;;;;;;5033252;28;97024;-75
2022/01/13 13:32:05;;;;;;;139.35;26.30;;;;;;;;;;5032719;28;95292;-75
2022/01/13 13:34:32;;;;;;;139.32;26.42;;;;;;;;;;5032112;27;96692;-74
2022/01/13 13:36:59;;;;;;;157.88;27.85;;;;;;;;;;5032181;28;97367;-74
2022/01/13 13:39:26;;;;;;;137.75;26.60;;;;;;;;;;5032547;27;95220;-73
2022/01/13 13:42:02;;;;;;;140.10;27.73;;;;;;;;;;5032701;28;97145;-75
2022/01/13 13:44:29;;;;;;;129.85;25.45;;;;;;;;;;5031971;28;97402;-74
2022/01/13 13:46:57;;;;;;;123.63;25.60;;;;;;;;;;5035997;28;96610;-74
2022/01/13 13:49:24;;;;;;;131.60;25.48;;;;;;;;;;5031826;28;97307;-74
2022/01/13 13:51:52;;;;;;;117.28;24.35;;;;;;;;;;5014710;28;95206;-74
2022/01/13 13:54:23;;;;;;;123.78;24.83;;;;;;;;;;5032948;28;95415;-75
2022/01/13 13:56:55;;;;;;;134.82;25.85;;;;;;;;;;5031754;28;97619;-74
2022/01/13 13:59:26;;;;;;;125.10;25.48;;;;;;;;;;5032409;28;95225;-73
2022/01/13 14:01:56;;;;;;;136.93;26.20;;;;;;;;;;5032393;27;96405;-74
2022/01/13 14:04:31;;;;;;;131.30;26.00;;;;;;;;;;5031392;28;98035;-74
2022/01/13 14:06:59;;;;;;;111.55;24.80;;;;;;;;;;5015033;28;95241;-74
2022/01/13 14:09:35;;;;;;;127.50;23.90;;;;;;;;;;5034323;28;96898;-74
2022/01/13 14:12:01;;;;;;;121.22;25.00;;;;;;;;;;5032542;28;95369;-73
2022/01/13 14:14:34;;;;;;;128.40;24.33;;;;;;;;;;5031785;28;96608;-74
2022/01/13 14:17:00;;;;;;;126.72;25.67;;;;;;;;;;5013277;28;97268;-75
2022/01/13 14:19:27;;;;;;;130.88;24.50;;;;;;;;;;5030798;28;95327;-74
2022/01/13 14:21:53;;;;;;;123.63;23.67;;;;;;;;;;5031541;28;96806;-74
2022/01/13 14:24:30;;;;;;;111.10;24.13;;;;;;;;;;5024806;27;97068;-74
2022/01/13 14:27:05;;;;;;;119.53;23.67;;;;;;;;;;5019867;27;96494;-75
2022/01/13 14:29:31;;;;;;;118.63;22.77;;;;;;;;;;5030095;28;97277;-74
2022/01/13 14:32:16;;;;;;;102.07;22.15;;;;;;;;;;5024613;28;97315;-75
2022/01/13 14:34:49;;;;;;;127.55;23.95;;;;;;;;;;5026652;28;96769;-75
2022/01/13 14:37:15;;;;;;;121.18;24.38;;;;;;;;;;5029775;28;97141;-76